Winkler County Airport Wink US
ICAO: KINK
IATA: INK
Category: Medium
Scheduled Services: No

Elevation: 2822 ft
TransAlt. 18000 ft.

Airport Communications:
ASOS:118.325
FORT WORTH CNTR:133.1
SAN ANGELO RDO:122.05
CTAF/UNICOM:123

KINK Zoom In..

If you have problems with the map follow the link
https://www.worldairports.se/pages/airport.php?
ICAO=KINK

Runways:

(A) RW 04 length 3514 ft width 100 ft
---- / hdg 42

(B) RW 13 length 5003 ft width 100 ft
---- / hdg 132

(C) RW 22 length 3514 ft width 100 ft
---- / hdg 222

(D) RW 31 length 5003 ft width 100 ft
---- / hdg 312

Location; KINK
Day. 28 / Time. 14.53 Zulu
* Altimeter: 30.03
* Temperature: 09° c. 48.2°f.
* Wind from: 340° Speed 24 kn with Gusts up to 32 kn.
Dewpoint: 01° c.
Visibility: 10 Statute Miles.
Clouds: Overcast 3900 ft.

KINK 281453Z AUTO 34024G32KT 10SM OVC039 09/01 A3003 RMK AO2 PK WND 35033/1410 SLP149 T00940006 51037


Wind From 340°
Speed 24 kn.

 
 
jpsmedia worldairports.se 2020   terms of use